Time;durP1;ratioP1;P1;durP2;ratioP2;P2;SDS_P1;SDS_P2;PMS_P1;PMS_P2;Temp;Humidity;BMP_temperature;BMP_pressure;BME280_temperature;BME280_humidity;BME280_pressure;Samples;Min_cycle;Max_cycle;Signal;HPM_P1;HPM_P2
2021/07/18 00:00:23;;;;;;;20.23;13.78;;;;;;;22.07;74.90;99087.01;129811;1093;22651;-86
2021/07/18 00:02:50;;;;;;;20.70;14.00;;;;;;;22.09;74.93;99081.89;129832;1092;22576;-86
2021/07/18 00:05:18;;;;;;;16.28;13.55;;;;;;;22.12;74.89;99078.44;129593;1093;22666;-85
2021/07/18 00:07:46;;;;;;;17.00;14.25;;;;;;;22.15;74.71;99066.66;127989;1093;26241;-85
2021/07/18 00:10:14;;;;;;;15.15;13.13;;;;;;;22.17;74.81;99060.77;127895;1092;22955;-86
2021/07/18 00:12:42;;;;;;;17.55;13.20;;;;;;;22.21;74.92;99064.47;129086;1093;25845;-86
2021/07/18 00:15:11;;;;;;;15.18;13.13;;;;;;;22.07;74.94;99037.06;127705;1093;22869;-86
2021/07/18 00:17:53;;;;;;;18.85;14.33;;;;;;;22.18;74.89;99049.32;127971;1093;25247;-86
2021/07/18 00:20:20;;;;;;;25.13;15.08;;;;;;;22.14;75.10;99045.61;128101;1093;22799;-85
2021/07/18 00:22:48;;;;;;;17.75;12.90;;;;;;;22.09;75.00;99042.23;128355;1093;22810;-86
2021/07/18 00:25:16;;;;;;;18.55;14.13;;;;;;;22.02;75.21;99040.05;128174;1092;22841;-86
2021/07/18 00:27:43;;;;;;;19.88;13.08;;;;;;;21.97;75.27;99051.34;128117;1093;22807;-87
2021/07/18 00:30:11;;;;;;;16.63;13.78;;;;;;;21.91;75.67;99044.41;129744;1093;22624;-87
2021/07/18 00:32:41;;;;;;;18.90;14.20;;;;;;;21.88;75.80;99050.64;129785;1093;22633;-87
2021/07/18 00:35:09;;;;;;;22.58;14.80;;;;;;;21.84;75.92;99049.70;129834;1093;22635;-86
2021/07/18 00:37:56;;;;;;;23.70;14.68;;;;;;;21.81;76.07;99042.88;129825;1093;22566;-86
2021/07/18 00:40:24;;;;;;;18.45;13.78;;;;;;;21.81;76.38;99047.61;129751;1093;22550;-86
2021/07/18 00:42:52;;;;;;;17.08;14.55;;;;;;;21.80;76.15;99038.48;127950;1093;22890;-83
2021/07/18 00:45:19;;;;;;;18.08;13.65;;;;;;;21.80;76.17;99032.93;127641;1093;23476;-85
2021/07/18 00:47:47;;;;;;;20.13;14.85;;;;;;;21.80;76.11;99037.66;128118;1092;23401;-84
2021/07/18 00:50:15;;;;;;;23.08;15.15;;;;;;;21.79;76.15;99031.31;127989;1093;23330;-84
2021/07/18 00:52:43;;;;;;;18.15;14.78;;;;;;;21.77;76.20;99036.41;128023;1092;23621;-84
2021/07/18 00:55:12;;;;;;;21.03;13.35;;;;;;;21.73;76.20;99034.66;129712;1093;23143;-84
2021/07/18 00:57:42;;;;;;;21.33;14.35;;;;;;;21.71;76.36;99032.23;129814;1093;22525;-86
2021/07/18 01:00:10;;;;;;;19.45;15.05;;;;;;;21.71;76.48;99039.73;129792;1093;22567;-86
2021/07/18 01:02:38;;;;;;;17.75;15.55;;;;;;;21.71;77.04;99028.64;129817;1093;22569;-85
2021/07/18 01:05:07;;;;;;;20.18;14.50;;;;;;;21.71;76.82;99021.14;128254;1093;23899;-85
2021/07/18 01:07:35;;;;;;;17.30;15.23;;;;;;;21.73;77.44;99020.80;128023;1093;22892;-85
2021/07/18 01:10:04;;;;;;;18.98;16.40;;;;;;;21.74;77.06;99027.97;129245;1093;22740;-85
2021/07/18 01:12:32;;;;;;;23.35;16.40;;;;;;;21.74;77.73;99020.45;128209;1093;22840;-85
2021/07/18 01:14:59;;;;;;;23.53;17.43;;;;;;;21.77;78.19;99017.00;128119;1094;22834;-86
2021/07/18 01:17:28;;;;;;;22.73;15.78;;;;;;;21.77;78.61;99013.42;128056;1093;23296;-85
2021/07/18 01:19:55;;;;;;;27.35;17.33;;;;;;;21.86;78.81;99017.70;128037;1095;23693;-85
2021/07/18 01:22:24;;;;;;;21.60;16.08;;;;;;;21.90;78.83;99022.56;127915;1093;22783;-85
2021/07/18 01:24:52;;;;;;;23.13;15.33;;;;;;;21.93;78.75;99025.44;127894;1093;22826;-87
2021/07/18 01:27:21;;;;;;;25.25;15.70;;;;;;;21.96;79.06;99023.94;129717;1092;22612;-85
2021/07/18 01:29:50;;;;;;;29.38;16.25;;;;;;;21.99;79.17;99020.48;129805;1093;23091;-85
2021/07/18 01:32:17;;;;;;;26.10;16.08;;;;;;;22.01;79.06;99024.56;129764;1093;23576;-86
2021/07/18 01:34:45;;;;;;;22.65;15.73;;;;;;;22.02;79.07;99023.41;129803;1093;22530;-86
2021/07/18 01:37:12;;;;;;;23.85;16.73;;;;;;;22.04;79.03;99023.88;129804;1093;22642;-85
2021/07/18 01:39:40;;;;;;;21.18;15.10;;;;;;;22.06;78.99;99021.57;128523;1093;22808;-88
2021/07/18 01:42:07;;;;;;;24.65;15.58;;;;;;;22.07;78.90;99025.97;127965;1093;22833;-85
2021/07/18 01:44:35;;;;;;;20.25;15.18;;;;;;;22.07;78.81;99023.19;128001;1093;22817;-85
2021/07/18 01:47:03;;;;;;;23.28;15.20;;;;;;;22.09;78.96;99034.73;128007;1093;23511;-85
2021/07/18 01:49:31;;;;;;;24.55;15.45;;;;;;;22.11;78.71;99026.06;129780;1093;23236;-86
2021/07/18 01:51:59;;;;;;;23.98;15.78;;;;;;;22.12;78.59;99030.45;129114;1093;26316;-85
2021/07/18 01:54:27;;;;;;;24.93;15.35;;;;;;;22.12;78.63;99028.49;127885;1093;22821;-86
2021/07/18 01:56:56;;;;;;;22.75;15.65;;;;;;;22.12;78.52;99028.49;128115;1092;22820;-85
2021/07/18 01:59:24;;;;;;;25.58;15.78;;;;;;;22.13;78.39;99041.21;128160;1093;25901;-86
2021/07/18 02:01:52;;;;;;;22.60;16.03;;;;;;;22.12;78.28;99038.78;128042;1092;24426;-85
2021/07/18 02:04:20;;;;;;;19.10;14.98;;;;;;;22.12;78.21;99044.33;127903;1093;22812;-86
2021/07/18 02:06:47;;;;;;;20.90;15.23;;;;;;;22.13;78.25;99045.95;128135;1093;22778;-86
2021/07/18 02:09:15;;;;;;;22.48;14.53;;;;;;;22.13;78.03;99040.41;128045;1093;22900;-88
2021/07/18 02:11:43;;;;;;;29.90;14.33;;;;;;;22.14;77.99;99030.92;128128;1093;23812;-88
2021/07/18 02:14:10;;;;;;;24.95;14.45;;;;;;;22.14;77.80;99031.73;127995;1093;22782;-87
2021/07/18 02:16:38;;;;;;;24.53;14.60;;;;;;;22.16;77.65;99031.39;127968;1093;22793;-87
2021/07/18 02:19:09;;;;;;;29.00;14.80;;;;;;;22.16;77.34;99023.06;129122;1093;22620;-89
2021/07/18 02:21:39;;;;;;;25.65;13.18;;;;;;;22.18;77.08;99017.98;128562;1093;22787;-89
2021/07/18 02:24:07;;;;;;;22.68;12.65;;;;;;;22.19;76.84;99022.38;128105;1093;22961;-86
2021/07/18 02:26:35;;;;;;;20.48;11.78;;;;;;;22.19;76.60;99023.19;127997;1093;23463;-87
2021/07/18 02:29:02;;;;;;;22.75;12.33;;;;;;;22.22;76.31;99021.66;129676;1093;22588;-87
2021/07/18 02:31:32;;;;;;;24.55;12.20;;;;;;;22.22;75.98;99014.14;128919;1093;22770;-89
2021/07/18 02:33:59;;;;;;;21.00;11.30;;;;;;;22.26;75.87;99022.59;127776;1093;25772;-89
2021/07/18 02:36:27;;;;;;;21.23;12.47;;;;;;;22.28;75.64;99013.92;127896;1093;22797;-87
2021/07/18 02:38:55;;;;;;;19.65;12.98;;;;;;;22.23;75.57;99010.22;127970;1093;22790;-88
2021/07/18 02:41:22;;;;;;;26.25;11.90;;;;;;;22.32;75.48;99017.63;128174;1093;22847;-87
2021/07/18 02:43:50;;;;;;;20.55;11.80;;;;;;;22.35;75.28;99005.84;128061;1093;26627;-86
2021/07/18 02:46:19;;;;;;;19.80;11.38;;;;;;;22.37;75.20;99012.63;128022;1093;23876;-86
2021/07/18 02:48:47;;;;;;;23.78;12.33;;;;;;;22.38;75.20;99008.70;127930;1093;25162;-89
2021/07/18 02:51:15;;;;;;;24.25;12.35;;;;;;;22.39;75.23;99020.61;127978;1093;25861;-88
2021/07/18 02:53:42;;;;;;;25.73;11.88;;;;;;;22.40;74.99;99013.91;128058;1093;22820;-87
2021/07/18 02:56:11;;;;;;;24.58;12.43;;;;;;;22.42;74.92;99017.15;127997;1093;23511;-88
2021/07/18 02:58:38;;;;;;;22.18;12.00;;;;;;;22.43;75.13;99011.25;127957;1092;22828;-89
2021/07/18 03:01:08;;;;;;;22.40;13.63;;;;;;;22.46;74.84;99009.75;128158;1093;22877;-88
2021/07/18 03:03:35;;;;;;;17.95;12.15;;;;;;;22.48;74.92;99008.25;128108;1093;22791;-87
2021/07/18 03:06:03;;;;;;;21.25;12.08;;;;;;;22.50;74.83;99005.94;127981;1093;22836;-87
2021/07/18 03:08:31;;;;;;;19.25;12.03;;;;;;;22.53;74.93;99005.21;128063;1092;23067;-89
2021/07/18 03:13:48;;;;;;;23.18;12.98;;;;;;;22.58;74.79;99006.95;125755;1092;22777;-55
2021/07/18 03:16:29;;;;;;;18.53;12.18;;;;;;;22.62;74.72;99002.32;130078;1091;23170;-55
2021/07/18 03:19:00;;;;;;;22.63;12.68;;;;;;;22.65;74.73;99003.59;130093;1091;23153;-56
2021/07/18 03:21:34;;;;;;;21.95;13.00;;;;;;;22.68;74.69;99003.67;130051;1093;22561;-55
2021/07/18 03:24:03;;;;;;;18.70;11.83;;;;;;;22.71;74.58;99004.95;130103;1093;22576;-55
2021/07/18 03:26:33;;;;;;;23.45;12.43;;;;;;;22.74;74.47;99007.84;130027;1093;22561;-55
2021/07/18 03:29:01;;;;;;;19.93;12.03;;;;;;;22.77;74.51;99003.59;130086;1092;23329;-55
2021/07/18 03:31:31;;;;;;;24.58;12.20;;;;;;;22.80;74.39;99011.20;130073;1093;22633;-55
2021/07/18 03:34:00;;;;;;;25.28;13.05;;;;;;;22.83;74.40;99007.72;130075;1092;22576;-55
2021/07/18 03:36:29;;;;;;;21.90;12.40;;;;;;;22.87;74.30;99008.64;130106;1093;23476;-55
2021/07/18 03:38:58;;;;;;;16.98;11.55;;;;;;;22.90;74.34;99003.20;130104;1093;22546;-55
2021/07/18 03:41:27;;;;;;;23.73;13.43;;;;;;;22.96;74.29;99002.94;130089;1093;22558;-55
2021/07/18 03:43:56;;;;;;;25.68;12.83;;;;;;;23.00;74.10;99006.63;130093;1092;22745;-55
2021/07/18 03:46:25;;;;;;;25.93;12.95;;;;;;;23.04;73.91;99008.36;130106;1092;22561;-55
2021/07/18 03:48:54;;;;;;;20.43;12.93;;;;;;;23.08;73.98;99006.50;130038;1092;22608;-55
2021/07/18 03:51:24;;;;;;;21.25;12.83;;;;;;;23.14;73.92;99012.59;130096;1093;22627;-56
2021/07/18 03:53:52;;;;;;;23.58;12.28;;;;;;;23.19;73.65;99006.80;129899;1093;22538;-55
2021/07/18 03:56:22;;;;;;;27.08;13.65;;;;;;;23.23;73.72;99004.91;130089;1093;22546;-56
2021/07/18 03:58:51;;;;;;;23.78;13.23;;;;;;;23.28;73.72;99002.69;130040;1092;23068;-55
2021/07/18 04:01:21;;;;;;;22.33;13.03;;;;;;;23.36;73.71;99003.71;130087;1093;22717;-56
2021/07/18 04:03:49;;;;;;;21.98;13.58;;;;;;;23.43;73.54;99003.89;130071;1092;22547;-55
2021/07/18 04:06:18;;;;;;;22.53;13.45;;;;;;;23.48;73.27;99008.39;129871;1093;22533;-55
2021/07/18 04:08:47;;;;;;;25.73;12.98;;;;;;;23.54;72.83;99012.55;130028;1093;22580;-55
2021/07/18 04:11:16;;;;;;;26.00;13.65;;;;;;;23.59;72.47;99017.85;130138;1093;22546;-56
2021/07/18 04:13:45;;;;;;;21.03;14.48;;;;;;;23.65;72.54;99022.00;130066;1093;22668;-55
2021/07/18 04:16:14;;;;;;;21.58;13.78;;;;;;;23.70;72.35;99015.34;130102;1092;22631;-55
2021/07/18 04:19:03;;;;;;;19.15;13.90;;;;;;;23.75;72.32;99015.09;130064;1093;22640;-55
2021/07/18 04:21:34;;;;;;;24.18;14.15;;;;;;;23.79;72.21;99016.00;129839;1092;22570;-55
2021/07/18 04:24:07;;;;;;;25.50;14.93;;;;;;;23.82;71.66;99002.16;130078;1093;22699;-57
2021/07/18 04:26:36;;;;;;;28.00;14.23;;;;;;;23.87;71.86;99003.88;129812;1091;22800;-54
2021/07/18 04:29:05;;;;;;;25.18;14.83;;;;;;;23.92;71.75;99001.64;129792;1093;22553;-54
2021/07/18 04:31:34;;;;;;;26.98;15.23;;;;;;;23.97;71.93;99006.92;130105;1093;22553;-54
2021/07/18 04:34:03;;;;;;;26.28;15.08;;;;;;;24.03;71.42;99013.03;130040;1092;22599;-55
2021/07/18 04:36:32;;;;;;;29.20;15.40;;;;;;;24.06;71.17;99020.67;130094;1093;23466;-55
2021/07/18 04:39:01;;;;;;;22.80;13.93;;;;;;;24.08;71.25;99011.97;130051;1092;22582;-54
2021/07/18 04:41:37;;;;;;;21.23;14.53;;;;;;;24.12;70.72;99022.00;129899;1092;23822;-54
2021/07/18 04:44:06;;;;;;;22.58;14.25;;;;;;;24.16;70.83;99022.91;130038;1092;23489;-54
2021/07/18 04:46:35;;;;;;;20.35;14.78;;;;;;;24.19;70.98;99024.16;130113;1092;22624;-55
2021/07/18 04:49:04;;;;;;;18.88;14.18;;;;;;;24.24;71.13;99027.49;130060;1093;22524;-54
2021/07/18 04:51:33;;;;;;;19.85;14.38;;;;;;;24.28;70.42;99030.38;129800;1093;22581;-54
2021/07/18 04:54:02;;;;;;;24.53;15.35;;;;;;;24.32;70.37;99025.70;130061;1092;22608;-54
2021/07/18 04:56:31;;;;;;;22.43;15.08;;;;;;;24.38;70.49;99031.81;130018;1093;23947;-54
2021/07/18 04:59:00;;;;;;;26.63;16.20;;;;;;;24.42;70.14;99029.91;130068;1093;22621;-54
2021/07/18 05:01:29;;;;;;;24.10;14.40;;;;;;;24.45;69.89;99027.20;129836;1091;22550;-54
2021/07/18 05:04:00;;;;;;;23.43;16.08;;;;;;;24.50;69.75;99021.37;130103;1091;22532;-55
2021/07/18 05:06:30;;;;;;;21.23;14.43;;;;;;;24.56;69.55;99025.47;130027;1093;22758;-54
2021/07/18 05:08:59;;;;;;;24.60;14.23;;;;;;;24.66;69.61;99026.91;130096;1093;23487;-54
2021/07/18 05:11:28;;;;;;;24.13;15.43;;;;;;;24.75;69.42;99026.69;129750;1093;22959;-55
2021/07/18 05:13:57;;;;;;;27.50;15.03;;;;;;;24.86;68.98;99025.75;130079;1093;22671;-55
2021/07/18 05:16:26;;;;;;;21.43;15.58;;;;;;;25.00;68.95;99031.66;130035;1092;23154;-55
2021/07/18 05:18:56;;;;;;;21.80;15.15;;;;;;;25.18;68.23;99026.46;130034;1093;22516;-55
2021/07/18 05:21:25;;;;;;;23.70;15.90;;;;;;;25.42;67.59;99024.52;129793;1093;22587;-54
2021/07/18 05:23:54;;;;;;;27.25;16.75;;;;;;;25.70;66.94;99019.51;130044;1092;23168;-55
2021/07/18 05:26:23;;;;;;;23.13;15.20;;;;;;;26.05;66.23;99011.77;129771;1093;22547;-55
2021/07/18 05:28:52;;;;;;;22.73;15.05;;;;;;;26.46;65.75;99012.05;130020;1093;22632;-55
2021/07/18 05:31:21;;;;;;;23.20;14.73;;;;;;;26.85;64.35;99006.20;130073;1092;25083;-55
2021/07/18 05:33:50;;;;;;;24.55;15.25;;;;;;;27.23;63.58;99007.92;130048;1093;22742;-55
2021/07/18 05:36:18;;;;;;;20.88;13.75;;;;;;;27.65;62.67;99016.02;130079;1093;22526;-55
2021/07/18 05:38:48;;;;;;;21.33;14.90;;;;;;;28.09;61.34;99007.63;130067;1093;22615;-55
2021/07/18 05:41:17;;;;;;;19.95;13.93;;;;;;;28.45;59.82;99003.92;130094;1093;23445;-55
2021/07/18 05:43:48;;;;;;;22.20;15.80;;;;;;;28.79;58.90;99006.57;130034;1092;22546;-55
2021/07/18 05:46:17;;;;;;;20.52;14.28;;;;;;;29.10;58.71;99011.54;130051;1093;22602;-56
2021/07/18 05:48:46;;;;;;;26.00;15.70;;;;;;;29.40;57.31;99002.05;130049;1093;22555;-53
2021/07/18 05:51:15;;;;;;;23.00;14.08;;;;;;;29.70;56.51;99005.34;130094;1093;22556;-53
2021/07/18 05:53:45;;;;;;;19.53;13.90;;;;;;;29.96;56.23;99009.78;130070;1093;22725;-53
2021/07/18 05:56:14;;;;;;;20.88;14.43;;;;;;;30.25;55.69;99013.42;130060;1093;22529;-53
2021/07/18 05:58:43;;;;;;;22.33;15.80;;;;;;;30.53;53.96;99013.39;129833;1092;24347;-53
2021/07/18 06:01:13;;;;;;;18.93;13.83;;;;;;;30.77;53.85;99013.77;130091;1092;22489;-53
2021/07/18 06:03:43;;;;;;;26.60;15.38;;;;;;;30.93;52.55;99019.75;130033;1093;22545;-56
2021/07/18 06:06:15;;;;;;;18.30;13.35;;;;;;;31.01;53.04;99023.36;130060;1093;23817;-53
2021/07/18 06:08:44;;;;;;;32.43;15.28;;;;;;;31.15;52.92;99028.97;130067;1093;22537;-53
2021/07/18 06:11:13;;;;;;;21.00;14.88;;;;;;;31.26;51.91;99032.53;130108;1093;22519;-53
2021/07/18 06:13:55;;;;;;;24.28;15.68;;;;;;;31.35;51.85;99026.45;130027;1092;22702;-53
2021/07/18 06:16:25;;;;;;;16.50;14.73;;;;;;;31.32;51.50;99032.89;130067;1092;22556;-53
2021/07/18 06:18:54;;;;;;;22.98;14.83;;;;;;;31.17;51.49;99030.14;130060;1092;22642;-53
2021/07/18 06:21:23;;;;;;;21.18;13.80;;;;;;;31.04;52.13;99030.97;130041;1091;22552;-53
2021/07/18 06:23:52;;;;;;;22.88;16.03;;;;;;;30.89;52.57;99033.83;130087;1093;22617;-53
2021/07/18 06:26:21;;;;;;;20.83;14.73;;;;;;;30.64;52.60;99040.72;130048;1093;22593;-54
2021/07/18 06:28:51;;;;;;;31.23;16.08;;;;;;;30.32;53.36;99038.70;130022;1093;22555;-54
2021/07/18 06:31:25;;;;;;;20.78;15.35;;;;;;;30.00;54.32;99040.72;130020;1091;22535;-53
2021/07/18 06:33:54;;;;;;;23.55;16.08;;;;;;;29.72;54.61;99041.45;130064;1093;22562;-54
2021/07/18 06:36:22;;;;;;;23.58;14.45;;;;;;;29.53;55.38;99039.78;130062;1092;22609;-54
2021/07/18 06:38:51;;;;;;;23.43;13.88;;;;;;;29.40;55.60;99033.73;129807;1092;22534;-53
2021/07/18 06:41:21;;;;;;;21.53;15.73;;;;;;;29.32;55.93;99031.25;130024;1092;22572;-54
2021/07/18 06:43:50;;;;;;;22.50;15.80;;;;;;;29.24;56.07;99038.84;130041;1093;22542;-53
2021/07/18 06:46:30;;;;;;;23.98;16.93;;;;;;;29.13;56.80;99038.81;130034;1092;22548;-54
2021/07/18 06:48:59;;;;;;;17.53;15.30;;;;;;;29.07;56.38;99039.57;130088;1092;22518;-53
2021/07/18 06:51:29;;;;;;;20.00;15.08;;;;;;;29.03;56.82;99047.96;130047;1092;22706;-54
2021/07/18 06:53:58;;;;;;;29.13;16.85;;;;;;;29.00;56.50;99042.35;130026;1093;22562;-53
2021/07/18 06:56:30;;;;;;;20.90;15.18;;;;;;;28.91;56.70;99044.69;130036;1093;22543;-53
2021/07/18 06:58:59;;;;;;;22.15;15.23;;;;;;;28.82;56.88;99037.45;130051;1092;22530;-54
2021/07/18 07:01:29;;;;;;;25.00;14.00;;;;;;;28.80;57.39;99037.03;129846;1093;22559;-54
2021/07/18 07:03:58;;;;;;;27.85;16.03;;;;;;;28.84;57.61;99042.67;130056;1093;22544;-54
2021/07/18 07:06:27;;;;;;;23.95;15.43;;;;;;;28.85;57.42;99047.86;129987;1093;22533;-54
2021/07/18 07:08:57;;;;;;;21.90;17.20;;;;;;;28.88;57.03;99043.47;130075;1093;22568;-54
2021/07/18 07:11:30;;;;;;;22.10;14.15;;;;;;;28.89;56.90;99045.08;129996;1093;22692;-54
2021/07/18 07:13:59;;;;;;;16.03;12.48;;;;;;;28.88;56.02;99046.27;129831;1092;22521;-54
2021/07/18 07:16:28;;;;;;;20.23;13.28;;;;;;;28.87;55.28;99050.27;130056;1093;23308;-54
2021/07/18 07:18:57;;;;;;;14.35;12.90;;;;;;;28.89;55.29;99038.66;130063;1093;22560;-54
2021/07/18 07:21:26;;;;;;;30.25;14.68;;;;;;;28.94;54.80;99039.11;130070;1092;22539;-54
2021/07/18 07:23:55;;;;;;;32.00;16.53;;;;;;;28.98;55.29;99041.94;130074;1093;22649;-54
2021/07/18 07:26:24;;;;;;;24.30;15.53;;;;;;;28.97;55.34;99034.72;130064;1092;22605;-54
2021/07/18 07:28:53;;;;;;;25.70;15.70;;;;;;;28.95;55.06;99043.52;129728;1092;22586;-54
2021/07/18 07:31:22;;;;;;;19.03;14.25;;;;;;;28.96;55.07;99035.91;130063;1093;22609;-54
2021/07/18 07:33:51;;;;;;;16.18;12.55;;;;;;;29.01;55.16;99046.73;129772;1092;22569;-54
2021/07/18 07:36:20;;;;;;;16.70;13.70;;;;;;;29.07;54.62;99047.98;130089;1092;22550;-54
2021/07/18 07:38:51;;;;;;;18.83;13.38;;;;;;;29.10;53.85;99041.59;130052;1092;22550;-54
2021/07/18 07:41:20;;;;;;;20.30;13.80;;;;;;;29.14;54.32;99051.61;125565;1093;22801;-57
2021/07/18 07:43:53;;;;;;;17.03;12.78;;;;;;;29.22;54.04;99055.27;130019;1092;23111;-58
2021/07/18 07:46:22;;;;;;;24.50;13.38;;;;;;;29.28;53.98;99050.09;130068;1092;22539;-58
2021/07/18 07:48:51;;;;;;;21.25;13.10;;;;;;;29.30;53.89;99054.09;130035;1093;22546;-58
2021/07/18 07:51:20;;;;;;;17.80;13.90;;;;;;;29.35;53.94;99053.72;130099;1093;22564;-58
2021/07/18 07:53:50;;;;;;;18.05;12.40;;;;;;;29.40;53.67;99049.77;130033;1093;22561;-58
2021/07/18 07:56:19;;;;;;;15.55;12.50;;;;;;;29.48;53.42;99045.77;130077;1093;23279;-58
2021/07/18 07:58:48;;;;;;;14.98;11.60;;;;;;;29.57;53.33;99048.23;129770;1093;23395;-58
2021/07/18 08:01:17;;;;;;;16.95;13.50;;;;;;;29.64;53.32;99048.23;129999;1093;22558;-58
2021/07/18 08:03:46;;;;;;;23.70;13.00;;;;;;;29.68;52.67;99043.44;130050;1092;22534;-59
2021/07/18 08:06:15;;;;;;;15.53;11.98;;;;;;;29.72;52.68;99049.88;130050;1093;22550;-59
2021/07/18 08:08:44;;;;;;;21.58;12.60;;;;;;;29.75;51.84;99047.05;129842;1093;22574;-59
2021/07/18 08:11:13;;;;;;;16.70;13.00;;;;;;;29.79;52.40;99047.06;130116;1093;22512;-59
2021/07/18 08:13:42;;;;;;;16.03;12.58;;;;;;;29.81;51.34;99044.67;130040;1092;23468;-59
2021/07/18 08:16:12;;;;;;;14.28;12.85;;;;;;;29.80;50.51;99043.86;130064;1092;22592;-60
2021/07/18 08:18:40;;;;;;;49.60;14.18;;;;;;;29.79;50.20;99044.25;130009;1093;22583;-59
2021/07/18 08:21:09;;;;;;;16.25;11.83;;;;;;;29.81;50.96;99033.43;130042;1093;22529;-59
2021/07/18 08:23:38;;;;;;;13.70;12.10;;;;;;;29.87;51.47;99038.24;130075;1092;22565;-59
2021/07/18 08:26:07;;;;;;;13.60;11.95;;;;;;;29.96;52.09;99040.68;129990;1092;23589;-59
2021/07/18 08:28:39;;;;;;;17.50;12.40;;;;;;;30.05;50.58;99034.69;129803;1092;22609;-59
2021/07/18 08:31:08;;;;;;;13.78;11.95;;;;;;;30.13;50.27;99033.50;129767;1093;22560;-59
2021/07/18 08:33:37;;;;;;;18.68;12.98;;;;;;;30.18;50.70;99036.70;130087;1092;22559;-59
2021/07/18 08:36:06;;;;;;;14.35;12.70;;;;;;;30.21;50.39;99033.09;130015;1092;22542;-59
2021/07/18 08:38:35;;;;;;;16.98;12.78;;;;;;;30.25;50.43;99035.91;130110;1093;22545;-59
2021/07/18 08:41:04;;;;;;;17.70;12.48;;;;;;;30.29;48.62;99033.91;130073;1092;23091;-55
2021/07/18 08:43:50;;;;;;;17.45;12.10;;;;;;;30.27;49.03;99041.94;129843;1092;22519;-56
2021/07/18 08:46:20;;;;;;;15.80;11.13;;;;;;;30.24;48.73;99039.92;130043;1093;22640;-55
2021/07/18 08:48:49;;;;;;;16.73;11.85;;;;;;;30.20;47.96;99045.53;130077;1093;22599;-55
2021/07/18 08:51:18;;;;;;;13.00;11.53;;;;;;;30.15;48.31;99036.72;130037;1093;22556;-55
2021/07/18 08:53:50;;;;;;;13.33;11.43;;;;;;;30.11;48.01;99030.28;130052;1093;22534;-55
2021/07/18 08:56:19;;;;;;;11.73;10.08;;;;;;;30.10;48.93;99031.48;129807;1093;23511;-55
2021/07/18 08:58:48;;;;;;;13.65;11.25;;;;;;;30.10;48.89;99035.10;129805;1092;23442;-55
2021/07/18 09:01:17;;;;;;;12.23;10.35;;;;;;;30.11;48.35;99028.28;130446;1088;22545;-56
2021/07/18 09:03:48;;;;;;;11.70;10.33;;;;;;;30.14;47.63;99029.49;130479;1090;22528;-55
2021/07/18 09:06:16;;;;;;;11.98;9.65;;;;;;;30.19;46.50;99031.88;130389;1089;22625;-55
2021/07/18 09:08:47;;;;;;;14.95;10.80;;;;;;;30.24;47.21;99028.68;130487;1090;22505;-57
2021/07/18 09:11:23;;;;;;;12.68;10.50;;;;;;;30.30;49.18;99029.09;130453;1088;22559;-55
2021/07/18 09:14:02;;;;;;;17.25;11.98;;;;;;;30.34;48.74;99033.48;130448;1089;22570;-54
2021/07/18 09:16:37;;;;;;;14.35;10.80;;;;;;;30.28;48.30;99031.50;130324;1089;22663;-55
2021/07/18 09:19:26;;;;;;;12.13;10.58;;;;;;;30.17;48.35;99034.28;130482;1089;22527;-54
2021/07/18 09:21:57;;;;;;;12.85;10.05;;;;;;;30.05;48.31;99027.06;130460;1090;22511;-54
2021/07/18 09:24:29;;;;;;;11.53;9.48;;;;;;;30.01;49.24;99026.25;130466;1088;22549;-54
2021/07/18 09:27:10;;;;;;;11.03;9.73;;;;;;;30.08;49.08;99025.46;130465;1088;22552;-54
2021/07/18 09:29:47;;;;;;;11.85;10.05;;;;;;;30.14;49.04;99024.67;130463;1090;22517;-54
2021/07/18 09:32:21;;;;;;;11.43;10.23;;;;;;;30.21;47.46;99029.48;130470;1090;22983;-55
2021/07/18 09:34:51;;;;;;;14.25;9.88;;;;;;;30.24;47.44;99025.87;130478;1090;22521;-54
2021/07/18 09:37:22;;;;;;;13.48;8.98;;;;;;;30.27;47.37;99021.45;130150;1090;22587;-55
2021/07/18 09:40:12;;;;;;;13.53;9.93;;;;;;;30.29;47.27;99022.67;130469;1089;22559;-55
2021/07/18 09:42:43;;;;;;;12.75;11.05;;;;;;;30.32;46.86;99021.84;130437;1088;23346;-54
2021/07/18 09:45:12;;;;;;;13.28;10.03;;;;;;;30.33;46.87;99015.02;130500;1088;23163;-55
2021/07/18 09:48:08;;;;;;;13.07;10.80;;;;;;;30.34;47.46;99025.05;130441;1088;22563;-55
2021/07/18 09:50:44;;;;;;;;;;;;;;;30.37;46.20;99021.44;130424;1088;22589;-55
2021/07/18 09:53:21;;;;;;;12.50;11.20;;;;;;;30.36;46.22;99028.27;130430;1089;22672;-54
2021/07/18 09:56:11;;;;;;;15.68;10.35;;;;;;;30.36;46.86;99028.27;130464;1088;22553;-54
2021/07/18 09:58:57;;;;;;;13.83;10.45;;;;;;;30.41;47.00;99016.63;130451;1089;22981;-54
2021/07/18 10:01:26;;;;;;;11.20;9.88;;;;;;;30.46;45.75;99019.02;130459;1089;22551;-54
2021/07/18 10:03:55;;;;;;;15.98;10.75;;;;;;;30.51;45.64;99023.44;130451;1088;22573;-55
2021/07/18 10:06:27;;;;;;;15.83;9.90;;;;;;;30.54;45.91;99019.85;130455;1088;22499;-55
2021/07/18 10:09:00;;;;;;;12.50;10.83;;;;;;;30.57;45.94;99024.67;130436;1089;22615;-54
2021/07/18 10:11:30;;;;;;;12.65;10.18;;;;;;;30.64;45.51;99018.22;130459;1090;23030;-54
2021/07/18 10:13:59;;;;;;;19.18;11.30;;;;;;;30.67;44.83;99014.60;130436;1090;23373;-54
2021/07/18 10:16:29;;;;;;;13.08;10.78;;;;;;;30.67;45.10;99008.98;130426;1090;22549;-54
2021/07/18 10:18:59;;;;;;;12.98;10.55;;;;;;;30.73;45.16;99013.00;130446;1088;23255;-55
2021/07/18 10:21:28;;;;;;;13.65;9.83;;;;;;;30.79;44.11;99005.73;130446;1089;23297;-55
2021/07/18 10:23:58;;;;;;;14.00;11.00;;;;;;;30.80;45.68;99005.33;130388;1090;22590;-54
2021/07/18 10:26:27;;;;;;;12.03;9.63;;;;;;;30.83;45.07;99003.72;130461;1089;22554;-54
2021/07/18 10:28:57;;;;;;;13.78;9.48;;;;;;;30.87;44.30;98998.89;130418;1090;22518;-54
2021/07/18 10:31:26;;;;;;;12.95;8.83;;;;;;;30.92;43.13;98990.02;130454;1090;22519;-54
2021/07/18 10:33:55;;;;;;;17.83;9.83;;;;;;;30.98;43.99;98987.59;130161;1090;22692;-55
2021/07/18 10:36:34;;;;;;;15.35;12.25;;;;;;;31.06;44.14;98983.52;130240;1089;22541;-54
2021/07/18 10:39:26;;;;;;;13.05;10.38;;;;;;;31.13;45.21;98980.73;130134;1090;23240;-54
2021/07/18 10:41:56;;;;;;;13.93;10.08;;;;;;;31.20;44.35;98975.84;130441;1089;22579;-58
2021/07/18 10:44:39;;;;;;;9.38;8.48;;;;;;;31.25;42.71;98975.44;130433;1090;22511;-57
2021/07/18 10:47:11;;;;;;;13.20;8.30;;;;;;;31.19;42.27;98965.00;130437;1090;22812;-59
2021/07/18 10:50:00;;;;;;;11.55;8.58;;;;;;;31.28;42.07;98977.44;130097;1090;22538;-58
2021/07/18 10:52:33;;;;;;;10.85;8.63;;;;;;;31.26;41.70;98979.05;130450;1088;22513;-58
2021/07/18 10:55:21;;;;;;;11.40;7.45;;;;;;;31.22;41.66;98964.98;130454;1088;22607;-58
2021/07/18 10:57:51;;;;;;;;;;;;;;;31.22;41.32;98964.98;130456;1090;22535;-58
2021/07/18 11:00:26;;;;;;;16.40;8.35;;;;;;;31.22;41.77;98964.98;130405;1089;21323;-58
2021/07/18 11:03:09;;;;;;;8.90;7.93;;;;;;;31.26;41.09;98970.61;130463;1090;22629;-58
2021/07/18 11:05:40;;;;;;;10.50;8.38;;;;;;;31.30;42.07;98965.77;130415;1089;22603;-59
2021/07/18 11:08:10;;;;;;;18.88;8.43;;;;;;;31.36;41.48;98960.48;130447;1089;22554;-58
2021/07/18 11:10:52;;;;;;;9.98;7.78;;;;;;;31.42;40.86;98954.02;130165;1089;22661;-58
2021/07/18 11:13:22;;;;;;;12.40;8.45;;;;;;;31.47;41.94;98955.59;130463;1090;22551;-58
2021/07/18 11:15:51;;;;;;;15.28;9.30;;;;;;;31.49;42.74;98948.33;130128;1090;23303;-58
2021/07/18 11:18:35;;;;;;;16.75;10.58;;;;;;;31.50;43.46;98949.94;130454;1089;22617;-58
2021/07/18 11:21:31;;;;;;;9.18;8.23;;;;;;;31.53;42.92;98942.69;130452;1089;22679;-58
2021/07/18 11:24:00;;;;;;;13.73;8.85;;;;;;;31.56;43.23;98944.69;130181;1089;23629;-58
2021/07/18 11:26:32;;;;;;;10.85;8.20;;;;;;;31.60;42.12;98942.63;130391;1090;22586;-58
2021/07/18 11:29:02;;;;;;;12.53;7.98;;;;;;;31.68;40.81;98949.05;130444;1090;22527;-58